Drake Field
KFYV : now visible

Airfield :











YOU CAN JOIN US ON...

 
LOGIN :

Register | Disclaimer

   EN    FR    IT 

 









Legend :    VFR   Marginal VFR   IFR   Intensive IFR   Very Intensive IFR
Visi :
Ceiling :
>= 8 km
>= 3000ft
5 to 8 km
1000 to 3000 ft
1500m to 5 km
500 to 1000 ft
800 to 1500m
200 to 500 ft
< 800m
< 200 ft
Symbols :   Thunderstorms  Fog  Heavy snow  Heavy precipitations  Wind > 20 kt






- Airport Elevation : 1251 ft
- IATA code : FYV


KFYV - Drake Field

CURRENT METAR :
  • 201953Z 18010KT 10SM BKN016 OVC023 23/20 A2999 RMK AO2 SLP147 T02280200

EXPIRED METARs :
  • 201853Z 19009KT 7SM OVC007 21/20 A3001 RMK AO2 CIG 006V011 SLP155 T02110200
  • 201753Z 20008KT 7SM OVC006 19/19 A3003 RMK AO2 LTG DSNT N AND NW RAE24 SLP163 P0001 60030 T01940194 10194 20122 58005

TAF KFYV
Valid from the 20 at 18:00 until the 21 at 18:00 UTC


201811Z 2018/2118 20008KT P6SM VCSH OVC006
FM202000 19008KT P6SM OVC012
FM202100 18004KT P6SM OVC022
FM210600 30003KT 3SM BR OVC007
FM211200 29003KT 4SM BR OVC004
KZME FIR / North America



MET'MAP, your aeronautical weather chart ! - Copyright ORBIFLY December 2007 - Disclaimer

ORBIFLY MET'MAP TEAM :

Programming & Development : Alexandra Zaïnal
Concept & original design : Baudouin d'Aumeries
Assistance for programming : Marc-Olivier Méhu
Technical & hardware support : Manuel Goepfert

Contact : metmap@orbifly.com




SOURCES & CREDITS :

   NOAA       Earth
Advisory